sensor_id;sensor_type;location;lat;lon;timestamp;temperature;humidity
54518;DHT22;40423;53.176;6.002;2022-10-26T00:00:00;11.80;99.90
54518;DHT22;40423;53.176;6.002;2022-10-26T00:02:26;11.80;99.90
54518;DHT22;40423;53.176;6.002;2022-10-26T00:04:52;11.80;99.90
54518;DHT22;40423;53.176;6.002;2022-10-26T00:07:17;11.80;99.90
54518;DHT22;40423;53.176;6.002;2022-10-26T00:09:43;11.80;99.90
54518;DHT22;40423;53.176;6.002;2022-10-26T00:12:09;11.80;99.90
54518;DHT22;40423;53.176;6.002;2022-10-26T00:14:34;11.80;99.90
54518;DHT22;40423;53.176;6.002;2022-10-26T00:17:00;11.80;99.90
54518;DHT22;40423;53.176;6.002;2022-10-26T00:19:26;11.80;99.90
54518;DHT22;40423;53.176;6.002;2022-10-26T00:21:52;11.80;99.90
54518;DHT22;40423;53.176;6.002;2022-10-26T00:24:18;11.80;99.90
54518;DHT22;40423;53.176;6.002;2022-10-26T00:26:43;11.70;99.90
54518;DHT22;40423;53.176;6.002;2022-10-26T00:29:11;11.70;99.90
54518;DHT22;40423;53.176;6.002;2022-10-26T00:31:38;11.70;99.90
54518;DHT22;40423;53.176;6.002;2022-10-26T00:34:04;11.70;99.90
54518;DHT22;40423;53.176;6.002;2022-10-26T00:36:30;11.70;99.90
54518;DHT22;40423;53.176;6.002;2022-10-26T00:38:57;11.70;99.90
54518;DHT22;40423;53.176;6.002;2022-10-26T00:41:25;11.70;99.90
54518;DHT22;40423;53.176;6.002;2022-10-26T00:43:52;11.70;99.90
54518;DHT22;40423;53.176;6.002;2022-10-26T00:46:25;11.70;99.90
54518;DHT22;40423;53.176;6.002;2022-10-26T00:48:53;11.60;99.90
54518;DHT22;40423;53.176;6.002;2022-10-26T00:53:52;11.60;99.90
54518;DHT22;40423;53.176;6.002;2022-10-26T00:56:18;11.60;99.90
54518;DHT22;40423;53.176;6.002;2022-10-26T00:58:44;11.50;99.90
54518;DHT22;40423;53.176;6.002;2022-10-26T01:01:10;11.50;99.90
54518;DHT22;40423;53.176;6.002;2022-10-26T01:03:37;11.50;99.90
54518;DHT22;40423;53.176;6.002;2022-10-26T01:06:04;11.50;99.90
54518;DHT22;40423;53.176;6.002;2022-10-26T01:08:30;11.50;99.90
54518;DHT22;40423;53.176;6.002;2022-10-26T01:10:57;11.40;99.90
54518;DHT22;40423;53.176;6.002;2022-10-26T01:13:25;11.40;99.90
54518;DHT22;40423;53.176;6.002;2022-10-26T01:16:05;11.40;99.90
54518;DHT22;40423;53.176;6.002;2022-10-26T01:19:06;11.40;99.90
54518;DHT22;40423;53.176;6.002;2022-10-26T01:27:00;11.30;99.90
54518;DHT22;40423;53.176;6.002;2022-10-26T01:29:45;11.30;99.90
54518;DHT22;40423;53.176;6.002;2022-10-26T01:37:37;11.20;99.90
54518;DHT22;40423;53.176;6.002;2022-10-26T01:43:22;11.20;99.90
54518;DHT22;40423;53.176;6.002;2022-10-26T01:45:50;11.20;99.90
54518;DHT22;40423;53.176;6.002;2022-10-26T01:48:18;11.20;99.90
54518;DHT22;40423;53.176;6.002;2022-10-26T01:50:47;11.20;99.90
54518;DHT22;40423;53.176;6.002;2022-10-26T01:53:15;11.10;99.90
54518;DHT22;40423;53.176;6.002;2022-10-26T01:55:48;11.10;99.90
54518;DHT22;40423;53.176;6.002;2022-10-26T02:12:32;10.90;99.90
54518;DHT22;40423;53.176;6.002;2022-10-26T02:15:19;10.90;99.90
54518;DHT22;40423;53.176;6.002;2022-10-26T02:20:47;10.90;99.90
54518;DHT22;40423;53.176;6.002;2022-10-26T02:23:14;10.80;99.90
54518;DHT22;40423;53.176;6.002;2022-10-26T02:25:48;10.80;99.90
54518;DHT22;40423;53.176;6.002;2022-10-26T02:28:18;10.80;99.90
54518;DHT22;40423;53.176;6.002;2022-10-26T02:30:47;10.80;99.90
54518;DHT22;40423;53.176;6.002;2022-10-26T02:33:15;10.80;99.90
54518;DHT22;40423;53.176;6.002;2022-10-26T02:35:47;10.80;99.90
54518;DHT22;40423;53.176;6.002;2022-10-26T02:38:17;10.80;99.90
54518;DHT22;40423;53.176;6.002;2022-10-26T02:40:46;10.80;99.90
54518;DHT22;40423;53.176;6.002;2022-10-26T02:43:14;10.80;99.90
54518;DHT22;40423;53.176;6.002;2022-10-26T02:45:58;10.80;99.90
54518;DHT22;40423;53.176;6.002;2022-10-26T02:48:25;10.80;99.90
54518;DHT22;40423;53.176;6.002;2022-10-26T02:56:05;10.70;99.90
54518;DHT22;40423;53.176;6.002;2022-10-26T02:58:36;10.70;99.90
54518;DHT22;40423;53.176;6.002;2022-10-26T03:01:03;10.70;99.90
54518;DHT22;40423;53.176;6.002;2022-10-26T03:03:29;10.60;99.90
54518;DHT22;40423;53.176;6.002;2022-10-26T03:08:25;10.60;99.90
54518;DHT22;40423;53.176;6.002;2022-10-26T03:10:51;10.60;99.90
54518;DHT22;40423;53.176;6.002;2022-10-26T03:13:17;10.60;99.90
54518;DHT22;40423;53.176;6.002;2022-10-26T03:15:42;10.60;99.90
54518;DHT22;40423;53.176;6.002;2022-10-26T03:18:08;10.60;99.90
54518;DHT22;40423;53.176;6.002;2022-10-26T03:20:34;10.60;99.90
54518;DHT22;40423;53.176;6.002;2022-10-26T03:23:00;10.60;99.90
54518;DHT22;40423;53.176;6.002;2022-10-26T03:25:26;10.60;99.90
54518;DHT22;40423;53.176;6.002;2022-10-26T03:28:02;10.60;99.90
54518;DHT22;40423;53.176;6.002;2022-10-26T03:30:29;10.60;99.90
54518;DHT22;40423;53.176;6.002;2022-10-26T03:32:55;10.60;99.90
54518;DHT22;40423;53.176;6.002;2022-10-26T03:35:21;10.60;99.90
54518;DHT22;40423;53.176;6.002;2022-10-26T03:37:47;10.60;99.90
54518;DHT22;40423;53.176;6.002;2022-10-26T03:40:13;10.60;99.90
54518;DHT22;40423;53.176;6.002;2022-10-26T03:42:39;10.60;99.90
54518;DHT22;40423;53.176;6.002;2022-10-26T03:45:06;10.60;99.90
54518;DHT22;40423;53.176;6.002;2022-10-26T03:47:32;10.60;99.90
54518;DHT22;40423;53.176;6.002;2022-10-26T03:49:58;10.70;99.90
54518;DHT22;40423;53.176;6.002;2022-10-26T03:52:24;10.70;99.90
54518;DHT22;40423;53.176;6.002;2022-10-26T03:54:50;10.60;99.90
54518;DHT22;40423;53.176;6.002;2022-10-26T03:57:16;10.60;99.90
54518;DHT22;40423;53.176;6.002;2022-10-26T03:59:42;10.60;99.90
54518;DHT22;40423;53.176;6.002;2022-10-26T04:02:08;10.60;99.90
54518;DHT22;40423;53.176;6.002;2022-10-26T04:04:34;10.60;99.90
54518;DHT22;40423;53.176;6.002;2022-10-26T04:06:59;10.60;99.90
54518;DHT22;40423;53.176;6.002;2022-10-26T04:09:25;10.60;99.90
54518;DHT22;40423;53.176;6.002;2022-10-26T04:11:51;10.60;99.90
54518;DHT22;40423;53.176;6.002;2022-10-26T04:14:16;10.60;99.90
54518;DHT22;40423;53.176;6.002;2022-10-26T04:16:42;10.60;99.90
54518;DHT22;40423;53.176;6.002;2022-10-26T04:19:08;10.70;99.90
54518;DHT22;40423;53.176;6.002;2022-10-26T04:21:33;10.70;99.90
54518;DHT22;40423;53.176;6.002;2022-10-26T04:24:00;10.70;99.90
54518;DHT22;40423;53.176;6.002;2022-10-26T04:26:26;10.70;99.90
54518;DHT22;40423;53.176;6.002;2022-10-26T04:28:52;10.80;99.90
54518;DHT22;40423;53.176;6.002;2022-10-26T04:31:18;10.80;99.90
54518;DHT22;40423;53.176;6.002;2022-10-26T04:33:44;10.80;99.90
54518;DHT22;40423;53.176;6.002;2022-10-26T04:36:09;10.80;99.90
54518;DHT22;40423;53.176;6.002;2022-10-26T04:38:35;10.80;99.90
54518;DHT22;40423;53.176;6.002;2022-10-26T04:41:01;10.90;99.90
54518;DHT22;40423;53.176;6.002;2022-10-26T04:43:26;10.90;99.90
54518;DHT22;40423;53.176;6.002;2022-10-26T04:45:56;10.90;99.90
54518;DHT22;40423;53.176;6.002;2022-10-26T04:48:22;10.90;99.90
54518;DHT22;40423;53.176;6.002;2022-10-26T04:50:48;10.90;99.90
54518;DHT22;40423;53.176;6.002;2022-10-26T04:53:14;10.90;99.90
54518;DHT22;40423;53.176;6.002;2022-10-26T04:55:40;10.90;99.90
54518;DHT22;40423;53.176;6.002;2022-10-26T04:58:06;10.90;99.90
54518;DHT22;40423;53.176;6.002;2022-10-26T05:00:33;11.00;99.90
54518;DHT22;40423;53.176;6.002;2022-10-26T05:03:04;11.00;99.90
54518;DHT22;40423;53.176;6.002;2022-10-26T05:05:30;11.00;99.90
54518;DHT22;40423;53.176;6.002;2022-10-26T05:07:56;11.00;99.90
54518;DHT22;40423;53.176;6.002;2022-10-26T05:10:23;11.00;99.90
54518;DHT22;40423;53.176;6.002;2022-10-26T05:12:53;11.00;99.90
54518;DHT22;40423;53.176;6.002;2022-10-26T05:15:20;11.00;99.90
54518;DHT22;40423;53.176;6.002;2022-10-26T05:17:46;11.10;99.90
54518;DHT22;40423;53.176;6.002;2022-10-26T05:20:12;11.10;99.90
54518;DHT22;40423;53.176;6.002;2022-10-26T05:22:41;11.10;99.90
54518;DHT22;40423;53.176;6.002;2022-10-26T05:25:07;11.10;99.90
54518;DHT22;40423;53.176;6.002;2022-10-26T05:27:33;11.10;99.90
54518;DHT22;40423;53.176;6.002;2022-10-26T05:29:59;11.10;99.90
54518;DHT22;40423;53.176;6.002;2022-10-26T05:32:24;11.10;99.90
54518;DHT22;40423;53.176;6.002;2022-10-26T05:34:50;11.10;99.90
54518;DHT22;40423;53.176;6.002;2022-10-26T05:37:16;11.10;99.90
54518;DHT22;40423;53.176;6.002;2022-10-26T05:39:42;11.10;99.90
54518;DHT22;40423;53.176;6.002;2022-10-26T05:42:10;11.20;99.90
54518;DHT22;40423;53.176;6.002;2022-10-26T05:44:36;11.20;99.90
54518;DHT22;40423;53.176;6.002;2022-10-26T05:47:01;11.20;99.90
54518;DHT22;40423;53.176;6.002;2022-10-26T05:49:27;11.20;99.90
54518;DHT22;40423;53.176;6.002;2022-10-26T05:51:53;11.20;99.90
54518;DHT22;40423;53.176;6.002;2022-10-26T05:54:18;11.20;99.90
54518;DHT22;40423;53.176;6.002;2022-10-26T05:56:44;11.20;99.90
54518;DHT22;40423;53.176;6.002;2022-10-26T05:59:13;11.20;99.90
54518;DHT22;40423;53.176;6.002;2022-10-26T06:04:35;11.20;99.90
54518;DHT22;40423;53.176;6.002;2022-10-26T06:07:08;11.20;99.90
54518;DHT22;40423;53.176;6.002;2022-10-26T06:09:35;11.20;99.90
54518;DHT22;40423;53.176;6.002;2022-10-26T06:12:02;11.20;99.90
54518;DHT22;40423;53.176;6.002;2022-10-26T06:14:28;11.30;99.90
54518;DHT22;40423;53.176;6.002;2022-10-26T06:31:00;11.40;99.90
54518;DHT22;40423;53.176;6.002;2022-10-26T06:33:26;11.40;99.90
54518;DHT22;40423;53.176;6.002;2022-10-26T06:36:26;11.40;99.90
54518;DHT22;40423;53.176;6.002;2022-10-26T06:39:03;11.40;99.90
54518;DHT22;40423;53.176;6.002;2022-10-26T06:41:34;11.40;99.90
54518;DHT22;40423;53.176;6.002;2022-10-26T06:44:01;11.40;99.90
54518;DHT22;40423;53.176;6.002;2022-10-26T06:46:47;11.40;99.90
54518;DHT22;40423;53.176;6.002;2022-10-26T06:49:41;11.40;99.90
54518;DHT22;40423;53.176;6.002;2022-10-26T06:54:49;11.40;99.90
54518;DHT22;40423;53.176;6.002;2022-10-26T06:57:19;11.40;99.90
54518;DHT22;40423;53.176;6.002;2022-10-26T06:59:49;11.40;99.90
54518;DHT22;40423;53.176;6.002;2022-10-26T07:02:16;11.40;99.90
54518;DHT22;40423;53.176;6.002;2022-10-26T07:04:42;11.40;99.90
54518;DHT22;40423;53.176;6.002;2022-10-26T07:07:14;11.40;99.90
54518;DHT22;40423;53.176;6.002;2022-10-26T07:09:42;11.40;99.90
54518;DHT22;40423;53.176;6.002;2022-10-26T07:12:08;11.40;99.90
54518;DHT22;40423;53.176;6.002;2022-10-26T07:14:34;11.50;99.90
54518;DHT22;40423;53.176;6.002;2022-10-26T07:16:59;11.50;99.90
54518;DHT22;40423;53.176;6.002;2022-10-26T07:19:25;11.50;99.90
54518;DHT22;40423;53.176;6.002;2022-10-26T07:21:54;11.60;99.90
54518;DHT22;40423;53.176;6.002;2022-10-26T07:24:21;11.60;99.90
54518;DHT22;40423;53.176;6.002;2022-10-26T07:26:47;11.70;99.90
54518;DHT22;40423;53.176;6.002;2022-10-26T07:29:13;11.70;99.90
54518;DHT22;40423;53.176;6.002;2022-10-26T07:31:40;11.70;99.90
54518;DHT22;40423;53.176;6.002;2022-10-26T07:34:06;11.70;99.90
54518;DHT22;40423;53.176;6.002;2022-10-26T07:36:32;11.80;99.90
54518;DHT22;40423;53.176;6.002;2022-10-26T07:39:02;11.80;99.90
54518;DHT22;40423;53.176;6.002;2022-10-26T07:41:27;11.90;99.90
54518;DHT22;40423;53.176;6.002;2022-10-26T07:43:53;11.90;99.90
54518;DHT22;40423;53.176;6.002;2022-10-26T07:46:19;12.00;99.90
54518;DHT22;40423;53.176;6.002;2022-10-26T07:48:44;12.00;99.90
54518;DHT22;40423;53.176;6.002;2022-10-26T07:51:10;12.00;99.90
54518;DHT22;40423;53.176;6.002;2022-10-26T07:53:36;12.10;99.90
54518;DHT22;40423;53.176;6.002;2022-10-26T07:56:02;12.20;99.90
54518;DHT22;40423;53.176;6.002;2022-10-26T07:58:27;12.20;99.90
54518;DHT22;40423;53.176;6.002;2022-10-26T08:00:54;12.30;99.90
54518;DHT22;40423;53.176;6.002;2022-10-26T08:03:20;12.30;99.90
54518;DHT22;40423;53.176;6.002;2022-10-26T08:05:47;12.40;99.90
54518;DHT22;40423;53.176;6.002;2022-10-26T08:08:18;12.40;99.90
54518;DHT22;40423;53.176;6.002;2022-10-26T08:10:45;12.40;99.90
54518;DHT22;40423;53.176;6.002;2022-10-26T08:13:11;12.50;99.90
54518;DHT22;40423;53.176;6.002;2022-10-26T08:15:37;12.60;99.90
54518;DHT22;40423;53.176;6.002;2022-10-26T08:18:03;12.70;99.90
54518;DHT22;40423;53.176;6.002;2022-10-26T08:20:29;12.80;99.90
54518;DHT22;40423;53.176;6.002;2022-10-26T08:22:55;12.90;99.90
54518;DHT22;40423;53.176;6.002;2022-10-26T08:25:21;13.00;99.90
54518;DHT22;40423;53.176;6.002;2022-10-26T08:27:47;13.10;99.90
54518;DHT22;40423;53.176;6.002;2022-10-26T08:30:13;13.20;99.90
54518;DHT22;40423;53.176;6.002;2022-10-26T08:32:39;13.20;99.90
54518;DHT22;40423;53.176;6.002;2022-10-26T08:35:07;13.40;99.90
54518;DHT22;40423;53.176;6.002;2022-10-26T08:37:33;13.50;99.90
54518;DHT22;40423;53.176;6.002;2022-10-26T08:39:59;13.60;99.90
54518;DHT22;40423;53.176;6.002;2022-10-26T08:42:29;13.70;99.90
54518;DHT22;40423;53.176;6.002;2022-10-26T08:45:04;13.80;99.90
54518;DHT22;40423;53.176;6.002;2022-10-26T08:47:39;13.90;99.90
54518;DHT22;40423;53.176;6.002;2022-10-26T08:50:19;13.90;99.90
54518;DHT22;40423;53.176;6.002;2022-10-26T08:52:55;14.00;99.90
54518;DHT22;40423;53.176;6.002;2022-10-26T08:55:38;14.00;99.90
54518;DHT22;40423;53.176;6.002;2022-10-26T08:58:09;14.10;99.90
54518;DHT22;40423;53.176;6.002;2022-10-26T09:00:39;14.20;99.90
54518;DHT22;40423;53.176;6.002;2022-10-26T09:03:15;14.20;99.90
54518;DHT22;40423;53.176;6.002;2022-10-26T09:10:43;14.50;99.90
54518;DHT22;40423;53.176;6.002;2022-10-26T09:13:27;14.60;99.90
54518;DHT22;40423;53.176;6.002;2022-10-26T09:24:08;15.10;99.90
54518;DHT22;40423;53.176;6.002;2022-10-26T09:26:39;15.20;99.90
54518;DHT22;40423;53.176;6.002;2022-10-26T09:29:12;15.30;99.90
54518;DHT22;40423;53.176;6.002;2022-10-26T09:31:41;15.40;99.90
54518;DHT22;40423;53.176;6.002;2022-10-26T09:34:53;15.50;99.90
54518;DHT22;40423;53.176;6.002;2022-10-26T09:37:12;15.60;99.90
54518;DHT22;40423;53.176;6.002;2022-10-26T09:45:19;15.80;99.90
54518;DHT22;40423;53.176;6.002;2022-10-26T09:47:50;16.00;99.90
54518;DHT22;40423;53.176;6.002;2022-10-26T09:52:48;16.20;99.90
54518;DHT22;40423;53.176;6.002;2022-10-26T09:55:14;16.30;99.90
54518;DHT22;40423;53.176;6.002;2022-10-26T09:57:43;16.40;99.90
54518;DHT22;40423;53.176;6.002;2022-10-26T10:00:14;16.50;99.90
54518;DHT22;40423;53.176;6.002;2022-10-26T10:02:42;16.50;99.90
54518;DHT22;40423;53.176;6.002;2022-10-26T10:05:28;16.50;99.90
54518;DHT22;40423;53.176;6.002;2022-10-26T10:08:22;16.40;99.90
54518;DHT22;40423;53.176;6.002;2022-10-26T10:11:11;16.30;99.90
54518;DHT22;40423;53.176;6.002;2022-10-26T10:13:40;16.10;99.90
54518;DHT22;40423;53.176;6.002;2022-10-26T10:16:11;16.20;99.90
54518;DHT22;40423;53.176;6.002;2022-10-26T10:18:39;16.30;99.90
54518;DHT22;40423;53.176;6.002;2022-10-26T10:21:06;16.20;99.90
54518;DHT22;40423;53.176;6.002;2022-10-26T10:23:34;16.20;99.90
54518;DHT22;40423;53.176;6.002;2022-10-26T10:28:31;16.30;99.90
54518;DHT22;40423;53.176;6.002;2022-10-26T10:31:00;16.40;99.90
54518;DHT22;40423;53.176;6.002;2022-10-26T10:33:39;16.50;99.90
54518;DHT22;40423;53.176;6.002;2022-10-26T10:36:09;16.60;99.90
54518;DHT22;40423;53.176;6.002;2022-10-26T10:38:37;16.60;99.90
54518;DHT22;40423;53.176;6.002;2022-10-26T10:41:05;16.60;99.90
54518;DHT22;40423;53.176;6.002;2022-10-26T10:43:42;16.60;99.90
54518;DHT22;40423;53.176;6.002;2022-10-26T10:46:08;16.60;99.90
54518;DHT22;40423;53.176;6.002;2022-10-26T10:48:34;16.70;99.90
54518;DHT22;40423;53.176;6.002;2022-10-26T10:51:04;16.70;99.90
54518;DHT22;40423;53.176;6.002;2022-10-26T10:53:54;16.80;99.90
54518;DHT22;40423;53.176;6.002;2022-10-26T11:01:21;17.10;99.90
54518;DHT22;40423;53.176;6.002;2022-10-26T11:06:51;17.50;99.90
54518;DHT22;40423;53.176;6.002;2022-10-26T11:09:23;17.60;99.90
54518;DHT22;40423;53.176;6.002;2022-10-26T11:12:01;17.70;99.90
54518;DHT22;40423;53.176;6.002;2022-10-26T11:14:38;17.90;99.90
54518;DHT22;40423;53.176;6.002;2022-10-26T11:17:21;17.90;99.90
54518;DHT22;40423;53.176;6.002;2022-10-26T11:19:48;18.10;99.90
54518;DHT22;40423;53.176;6.002;2022-10-26T11:22:24;18.20;99.90
54518;DHT22;40423;53.176;6.002;2022-10-26T11:25:03;18.30;99.90
54518;DHT22;40423;53.176;6.002;2022-10-26T11:27:42;18.50;99.90
54518;DHT22;40423;53.176;6.002;2022-10-26T11:30:17;18.60;99.90
54518;DHT22;40423;53.176;6.002;2022-10-26T11:41:19;18.80;99.90
54518;DHT22;40423;53.176;6.002;2022-10-26T11:43:48;18.80;99.90
54518;DHT22;40423;53.176;6.002;2022-10-26T11:48:50;18.90;99.90
54518;DHT22;40423;53.176;6.002;2022-10-26T11:51:37;18.90;99.90
54518;DHT22;40423;53.176;6.002;2022-10-26T11:54:21;18.90;99.90
54518;DHT22;40423;53.176;6.002;2022-10-26T11:56:52;18.70;99.90
54518;DHT22;40423;53.176;6.002;2022-10-26T11:59:27;18.60;99.90
54518;DHT22;40423;53.176;6.002;2022-10-26T12:01:59;18.40;99.90
54518;DHT22;40423;53.176;6.002;2022-10-26T12:04:30;18.40;99.90
54518;DHT22;40423;53.176;6.002;2022-10-26T12:06:58;18.40;99.90
54518;DHT22;40423;53.176;6.002;2022-10-26T12:09:30;18.30;99.90
54518;DHT22;40423;53.176;6.002;2022-10-26T12:12:19;18.20;99.90
54518;DHT22;40423;53.176;6.002;2022-10-26T12:15:04;18.10;99.90
54518;DHT22;40423;53.176;6.002;2022-10-26T12:23:03;18.00;99.90
54518;DHT22;40423;53.176;6.002;2022-10-26T12:25:29;18.00;99.90
54518;DHT22;40423;53.176;6.002;2022-10-26T12:27:55;18.10;99.90
54518;DHT22;40423;53.176;6.002;2022-10-26T12:32:59;18.30;99.90
54518;DHT22;40423;53.176;6.002;2022-10-26T12:35:40;18.40;99.90
54518;DHT22;40423;53.176;6.002;2022-10-26T12:43:37;18.50;99.90
54518;DHT22;40423;53.176;6.002;2022-10-26T12:48:48;18.50;99.90
54518;DHT22;40423;53.176;6.002;2022-10-26T12:54:27;18.70;99.90
54518;DHT22;40423;53.176;6.002;2022-10-26T12:56:56;18.60;99.90
54518;DHT22;40423;53.176;6.002;2022-10-26T12:59:40;18.70;99.90
54518;DHT22;40423;53.176;6.002;2022-10-26T13:07:24;18.60;99.90
54518;DHT22;40423;53.176;6.002;2022-10-26T13:09:59;18.60;99.90
54518;DHT22;40423;53.176;6.002;2022-10-26T13:12:34;18.60;99.90
54518;DHT22;40423;53.176;6.002;2022-10-26T13:15:03;18.70;99.90
54518;DHT22;40423;53.176;6.002;2022-10-26T13:17:31;18.70;99.90
54518;DHT22;40423;53.176;6.002;2022-10-26T13:20:00;18.70;99.90
54518;DHT22;40423;53.176;6.002;2022-10-26T13:22:26;18.60;99.90
54518;DHT22;40423;53.176;6.002;2022-10-26T13:24:56;18.50;99.90
54518;DHT22;40423;53.176;6.002;2022-10-26T13:32:30;18.30;99.90
54518;DHT22;40423;53.176;6.002;2022-10-26T13:34:59;18.20;99.90
54518;DHT22;40423;53.176;6.002;2022-10-26T13:37:28;18.20;99.90
54518;DHT22;40423;53.176;6.002;2022-10-26T13:39:55;18.10;99.90
54518;DHT22;40423;53.176;6.002;2022-10-26T13:42:25;18.10;99.90
54518;DHT22;40423;53.176;6.002;2022-10-26T13:44:57;18.00;99.90
54518;DHT22;40423;53.176;6.002;2022-10-26T13:47:51;18.00;99.90
54518;DHT22;40423;53.176;6.002;2022-10-26T13:50:19;18.10;99.90
54518;DHT22;40423;53.176;6.002;2022-10-26T13:52:49;18.00;99.90
54518;DHT22;40423;53.176;6.002;2022-10-26T13:58:35;18.10;99.90
54518;DHT22;40423;53.176;6.002;2022-10-26T14:01:19;18.20;99.90
54518;DHT22;40423;53.176;6.002;2022-10-26T14:03:49;18.10;99.90
54518;DHT22;40423;53.176;6.002;2022-10-26T14:06:24;18.10;99.90
54518;DHT22;40423;53.176;6.002;2022-10-26T14:08:53;18.10;99.90
54518;DHT22;40423;53.176;6.002;2022-10-26T14:11:29;18.10;99.90
54518;DHT22;40423;53.176;6.002;2022-10-26T14:13:56;18.00;99.90
54518;DHT22;40423;53.176;6.002;2022-10-26T14:16:25;18.00;99.90
54518;DHT22;40423;53.176;6.002;2022-10-26T14:18:52;18.00;99.90
54518;DHT22;40423;53.176;6.002;2022-10-26T14:21:19;18.00;99.90
54518;DHT22;40423;53.176;6.002;2022-10-26T14:23:57;18.00;99.90
54518;DHT22;40423;53.176;6.002;2022-10-26T14:26:38;17.90;99.90
54518;DHT22;40423;53.176;6.002;2022-10-26T14:29:12;17.90;99.90
54518;DHT22;40423;53.176;6.002;2022-10-26T14:31:39;17.90;99.90
54518;DHT22;40423;53.176;6.002;2022-10-26T14:34:04;17.80;99.90
54518;DHT22;40423;53.176;6.002;2022-10-26T14:36:41;17.80;99.90
54518;DHT22;40423;53.176;6.002;2022-10-26T14:41:45;17.80;99.90
54518;DHT22;40423;53.176;6.002;2022-10-26T14:44:19;17.80;99.90
54518;DHT22;40423;53.176;6.002;2022-10-26T14:46:46;17.80;99.90
54518;DHT22;40423;53.176;6.002;2022-10-26T14:49:23;17.80;99.90
54518;DHT22;40423;53.176;6.002;2022-10-26T14:51:56;17.80;99.90
54518;DHT22;40423;53.176;6.002;2022-10-26T14:54:25;17.70;99.90
54518;DHT22;40423;53.176;6.002;2022-10-26T14:56:52;17.70;99.90
54518;DHT22;40423;53.176;6.002;2022-10-26T14:59:23;17.70;99.90
54518;DHT22;40423;53.176;6.002;2022-10-26T15:01:50;17.60;99.90
54518;DHT22;40423;53.176;6.002;2022-10-26T15:04:34;17.60;99.90
54518;DHT22;40423;53.176;6.002;2022-10-26T15:07:22;17.50;99.90
54518;DHT22;40423;53.176;6.002;2022-10-26T15:12:29;17.40;99.90
54518;DHT22;40423;53.176;6.002;2022-10-26T15:17:48;17.40;99.90
54518;DHT22;40423;53.176;6.002;2022-10-26T15:20:15;17.30;99.90
54518;DHT22;40423;53.176;6.002;2022-10-26T15:22:42;17.30;99.90
54518;DHT22;40423;53.176;6.002;2022-10-26T15:25:16;17.30;99.90
54518;DHT22;40423;53.176;6.002;2022-10-26T15:27:46;17.20;99.90
54518;DHT22;40423;53.176;6.002;2022-10-26T15:30:23;17.20;99.90
54518;DHT22;40423;53.176;6.002;2022-10-26T15:32:50;17.20;99.90
54518;DHT22;40423;53.176;6.002;2022-10-26T15:37:42;17.10;99.90
54518;DHT22;40423;53.176;6.002;2022-10-26T15:40:08;17.10;99.90
54518;DHT22;40423;53.176;6.002;2022-10-26T15:42:35;17.10;99.90
54518;DHT22;40423;53.176;6.002;2022-10-26T15:45:23;17.10;99.90
54518;DHT22;40423;53.176;6.002;2022-10-26T15:47:54;17.00;99.90
54518;DHT22;40423;53.176;6.002;2022-10-26T15:50:24;17.00;99.90
54518;DHT22;40423;53.176;6.002;2022-10-26T15:52:57;16.90;99.90
54518;DHT22;40423;53.176;6.002;2022-10-26T15:55:24;16.90;99.90
54518;DHT22;40423;53.176;6.002;2022-10-26T15:57:50;16.90;99.90
54518;DHT22;40423;53.176;6.002;2022-10-26T16:00:16;16.90;99.90
54518;DHT22;40423;53.176;6.002;2022-10-26T16:02:43;16.90;99.90
54518;DHT22;40423;53.176;6.002;2022-10-26T16:05:11;16.90;99.90
54518;DHT22;40423;53.176;6.002;2022-10-26T16:07:39;16.80;99.90
54518;DHT22;40423;53.176;6.002;2022-10-26T16:10:13;16.80;99.90
54518;DHT22;40423;53.176;6.002;2022-10-26T16:12:39;16.80;99.90
54518;DHT22;40423;53.176;6.002;2022-10-26T16:15:06;16.80;99.90
54518;DHT22;40423;53.176;6.002;2022-10-26T16:17:31;16.80;99.90
54518;DHT22;40423;53.176;6.002;2022-10-26T16:19:58;16.80;99.90
54518;DHT22;40423;53.176;6.002;2022-10-26T16:22:24;16.70;99.90
54518;DHT22;40423;53.176;6.002;2022-10-26T16:24:50;16.70;99.90
54518;DHT22;40423;53.176;6.002;2022-10-26T16:27:15;16.70;99.90
54518;DHT22;40423;53.176;6.002;2022-10-26T16:29:41;16.70;99.90
54518;DHT22;40423;53.176;6.002;2022-10-26T16:32:07;16.70;99.90
54518;DHT22;40423;53.176;6.002;2022-10-26T16:34:32;16.70;99.90
54518;DHT22;40423;53.176;6.002;2022-10-26T16:36:58;16.70;99.90
54518;DHT22;40423;53.176;6.002;2022-10-26T16:39:24;16.60;99.90
54518;DHT22;40423;53.176;6.002;2022-10-26T16:41:50;16.60;99.90
54518;DHT22;40423;53.176;6.002;2022-10-26T16:44:16;16.60;99.90
54518;DHT22;40423;53.176;6.002;2022-10-26T16:46:41;16.60;99.90
54518;DHT22;40423;53.176;6.002;2022-10-26T16:49:07;16.50;99.90
54518;DHT22;40423;53.176;6.002;2022-10-26T16:51:33;16.50;99.90
54518;DHT22;40423;53.176;6.002;2022-10-26T16:53:59;16.50;99.90
54518;DHT22;40423;53.176;6.002;2022-10-26T16:56:29;16.40;99.90
54518;DHT22;40423;53.176;6.002;2022-10-26T16:58:55;16.40;99.90
54518;DHT22;40423;53.176;6.002;2022-10-26T17:01:24;16.40;99.90
54518;DHT22;40423;53.176;6.002;2022-10-26T17:03:50;16.40;99.90
54518;DHT22;40423;53.176;6.002;2022-10-26T17:06:17;16.30;99.90
54518;DHT22;40423;53.176;6.002;2022-10-26T17:08:43;16.30;99.90
54518;DHT22;40423;53.176;6.002;2022-10-26T17:11:12;16.30;99.90
54518;DHT22;40423;53.176;6.002;2022-10-26T17:13:39;16.30;99.90
54518;DHT22;40423;53.176;6.002;2022-10-26T17:16:06;16.30;99.90
54518;DHT22;40423;53.176;6.002;2022-10-26T17:18:32;16.20;99.90
54518;DHT22;40423;53.176;6.002;2022-10-26T17:20:58;16.20;99.90
54518;DHT22;40423;53.176;6.002;2022-10-26T17:23:23;16.20;99.90
54518;DHT22;40423;53.176;6.002;2022-10-26T17:25:49;16.20;99.90
54518;DHT22;40423;53.176;6.002;2022-10-26T17:28:15;16.20;99.90
54518;DHT22;40423;53.176;6.002;2022-10-26T17:30:41;16.20;99.90
54518;DHT22;40423;53.176;6.002;2022-10-26T17:33:07;16.20;99.90
54518;DHT22;40423;53.176;6.002;2022-10-26T17:35:33;16.20;99.90
54518;DHT22;40423;53.176;6.002;2022-10-26T17:37:59;16.10;99.90
54518;DHT22;40423;53.176;6.002;2022-10-26T17:40:25;16.60;99.90
54518;DHT22;40423;53.176;6.002;2022-10-26T17:42:51;16.10;99.90
54518;DHT22;40423;53.176;6.002;2022-10-26T17:45:16;16.10;99.90
54518;DHT22;40423;53.176;6.002;2022-10-26T17:47:42;16.00;99.90
54518;DHT22;40423;53.176;6.002;2022-10-26T17:50:08;16.00;99.90
54518;DHT22;40423;53.176;6.002;2022-10-26T17:52:34;16.00;99.90
54518;DHT22;40423;53.176;6.002;2022-10-26T17:55:00;16.00;99.90
54518;DHT22;40423;53.176;6.002;2022-10-26T17:57:26;15.90;99.90
54518;DHT22;40423;53.176;6.002;2022-10-26T17:59:51;15.90;99.90
54518;DHT22;40423;53.176;6.002;2022-10-26T18:02:17;15.90;99.90
54518;DHT22;40423;53.176;6.002;2022-10-26T18:04:43;15.90;99.90
54518;DHT22;40423;53.176;6.002;2022-10-26T18:07:10;15.90;99.90
54518;DHT22;40423;53.176;6.002;2022-10-26T18:09:36;15.80;99.90